Meservey, Iowa
Current Conditions -  °F | °C
As of 8:53 PM on Wednesday 22 Oct 2014 (Local Time) from KMCW Reporting Station
Clear Clear  
Wind Chill: 54°   Ceiling: Unl
Heat Index: 54°   Visibility: 10mi
Dew Point: 42°   Wind: 16mph
Humidity: 64%   Direction: 150°SSE
Pressure: 30.1"   Gusts: 24mph
Location:  42.91°N, 93.48°W
Report Text: KMCW 230153Z AUTO 15014G21KT 10SM CLR 12/06 A3010 RMK AO2 SLP193 T01220056
Loading
Personal Weather Stations






























Interactive Weather Map
Tropical Storm Tracking
New forecast layout! Learn more

10-Day Weather Forecast

Advertisements
Track Severe Weather on mobile